Time;durP1;ratioP1;P1;durP2;ratioP2;P2;SDS_P1;SDS_P2;PMS_P1;PMS_P2;Temp;Humidity;BMP_temperature;BMP_pressure;BME280_temperature;BME280_humidity;BME280_pressure;Samples;Min_cycle;Max_cycle;Signal;HPM_P1;HPM_P2
2022/12/29 00:00:05;;;;;;;11.57;7.90;;;;;;;-0.06;74.93;101084.67;1737997;81;21439;-74
2022/12/29 00:02:34;;;;;;;13.62;8.08;;;;;;;-0.05;74.96;101081.19;1736213;82;21002;-74
2022/12/29 00:05:01;;;;;;;11.22;7.78;;;;;;;-0.06;75.00;101084.23;1737235;82;21030;-74
2022/12/29 00:07:28;;;;;;;11.85;7.90;;;;;;;-0.05;75.02;101092.42;1737220;82;21046;-74
2022/12/29 00:09:55;;;;;;;12.93;8.00;;;;;;;-0.04;75.03;101078.99;1746775;81;21921;-73
2022/12/29 00:12:21;;;;;;;9.65;7.17;;;;;;;-0.03;75.07;101078.10;1735486;82;20983;-74
2022/12/29 00:17:33;;;;;;;15.58;8.50;;;;;;;-0.04;75.09;101077.25;1736100;82;20950;-74
2022/12/29 00:36:37;;;;;;;12.45;8.48;;;;;;;0.00;75.75;101080.64;1716925;83;21846;-74
2022/12/29 00:44:40;;;;;;;12.50;8.90;;;;;;;0.08;75.90;101079.12;1718875;81;21009;-75
2022/12/29 00:47:06;;;;;;;14.03;9.43;;;;;;;0.10;75.91;101071.73;1713437;83;21376;-74
2022/12/29 00:49:33;;;;;;;14.33;9.35;;;;;;;0.10;75.89;101074.77;1718750;82;21427;-74
2022/12/29 00:52:03;;;;;;;14.00;8.88;;;;;;;0.10;75.91;101077.37;1736496;82;20948;-74
2022/12/29 00:54:33;;;;;;;13.05;8.88;;;;;;;0.11;75.93;101069.98;1743357;82;21494;-73
2022/12/29 00:57:01;;;;;;;13.35;8.73;;;;;;;0.10;75.98;101072.18;1743086;82;21520;-74
2022/12/29 00:59:27;;;;;;;13.03;8.98;;;;;;;0.10;76.02;101069.13;1743081;82;21052;-73
2022/12/29 01:01:56;;;;;;;10.55;8.18;;;;;;;0.10;76.06;101068.28;1740892;82;21997;-73
2022/12/29 01:04:24;;;;;;;13.03;8.60;;;;;;;0.11;76.12;101067.38;1741318;82;21171;-72
2022/12/29 01:06:50;;;;;;;11.55;8.03;;;;;;;0.10;76.18;101060.48;1741504;82;21001;-72
2022/12/29 01:12:04;;;;;;;12.13;8.68;;;;;;;0.11;76.30;101052.66;1713485;83;20996;-73
2022/12/29 01:14:30;;;;;;;12.43;8.28;;;;;;;0.14;76.38;101046.52;1713564;83;21802;-74
2022/12/29 01:16:57;;;;;;;12.63;8.13;;;;;;;0.15;76.45;101039.12;1713442;83;21120;-74
2022/12/29 01:19:23;;;;;;;12.68;8.60;;;;;;;0.16;76.46;101045.58;1732589;82;20937;-73
2022/12/29 01:21:50;;;;;;;12.65;8.35;;;;;;;0.17;76.48;101050.33;1718670;82;21555;-74
2022/12/29 01:24:17;;;;;;;12.33;8.38;;;;;;;0.16;76.52;101035.64;1713621;83;20940;-74
2022/12/29 01:26:44;;;;;;;13.10;8.73;;;;;;;0.17;76.54;101039.94;1714329;82;21914;-73
2022/12/29 01:29:10;;;;;;;11.97;8.35;;;;;;;0.16;76.55;101043.43;1713491;83;21531;-73
2022/12/29 01:31:37;;;;;;;12.70;8.20;;;;;;;0.16;76.58;101041.68;1713462;83;21483;-73
2022/12/29 01:34:03;;;;;;;13.55;8.60;;;;;;;0.15;76.61;101036.08;1713430;83;21479;-73
2022/12/29 01:36:30;;;;;;;11.22;8.23;;;;;;;0.16;76.68;101031.29;1742118;82;21001;-73
2022/12/29 01:38:56;;;;;;;11.50;8.15;;;;;;;0.18;76.70;101032.55;1691965;82;21992;-74
2022/12/29 01:41:23;;;;;;;11.45;8.15;;;;;;;0.19;76.74;101032.95;1742953;82;20942;-73
2022/12/29 01:43:59;;;;;;;10.55;7.78;;;;;;;0.20;76.73;101025.14;1743304;81;21017;-73
2022/12/29 01:46:41;;;;;;;13.40;8.83;;;;;;;0.20;76.71;101018.65;1767429;81;20951;-74
2022/12/29 01:49:15;;;;;;;10.27;7.63;;;;;;;0.21;76.70;101020.80;1765984;79;21038;-73
2022/12/29 01:51:46;;;;;;;12.40;7.92;;;;;;;0.20;76.66;101025.59;1734494;82;21775;-74
2022/12/29 01:54:18;;;;;;;12.33;7.72;;;;;;;0.18;76.68;101026.05;1765407;81;20960;-73
2022/12/29 01:56:46;;;;;;;11.20;7.80;;;;;;;0.17;76.70;101016.55;1735470;82;20979;-74
2022/12/29 01:59:19;;;;;;;13.08;8.25;;;;;;;0.16;76.73;101011.81;1761362;81;21086;-74
2022/12/29 02:01:46;;;;;;;;;;;;;;;0.15;76.72;101005.36;1739810;82;20943;-74
2022/12/29 02:04:12;;;;;;;12.50;7.67;;;;;;;0.16;76.73;101008.36;1737144;82;21778;-74
2022/12/29 02:06:52;;;;;;;11.33;8.10;;;;;;;0.15;76.74;101014.00;1737330;82;21039;-74
2022/12/29 02:09:20;;;;;;;13.28;8.13;;;;;;;0.15;76.77;101009.25;1750545;81;21011;-74
2022/12/29 02:11:46;;;;;;;11.70;8.10;;;;;;;0.15;76.77;101005.36;1741956;81;20960;-74
2022/12/29 02:14:13;;;;;;;9.60;7.67;;;;;;;0.16;76.77;101006.61;1765453;81;20956;-74
2022/12/29 02:17:07;;;;;;;10.80;8.28;;;;;;;0.16;76.78;101006.61;1744419;81;21813;-74
2022/12/29 02:20:03;;;;;;;12.95;8.50;;;;;;;0.15;76.79;101002.31;1753642;81;21394;-74
2022/12/29 02:23:00;;;;;;;12.63;8.60;;;;;;;0.16;76.80;100995.38;1737186;82;21545;-74
2022/12/29 02:26:06;;;;;;;11.70;8.45;;;;;;;0.15;76.87;100990.63;1738124;81;21313;-74
2022/12/29 02:28:57;;;;;;;13.98;8.68;;;;;;;0.15;76.88;100987.17;1645594;83;20975;-74
2022/12/29 02:31:45;;;;;;;10.68;8.13;;;;;;;0.17;76.87;100991.88;1711701;82;21773;-72
2022/12/29 02:34:27;;;;;;;13.05;8.68;;;;;;;0.15;76.87;100987.17;1737620;81;20936;-75
2022/12/29 02:37:22;;;;;;;10.13;8.00;;;;;;;0.15;76.87;100989.77;1737184;82;20943;-72
2022/12/29 02:40:27;;;;;;;12.73;8.05;;;;;;;0.14;76.84;100998.02;1717556;83;21004;-73
2022/12/29 02:43:03;;;;;;;9.58;7.35;;;;;;;0.12;76.89;100996.36;1728441;82;21371;-74
2022/12/29 02:45:55;;;;;;;11.83;8.35;;;;;;;0.08;76.93;100993.42;1732050;82;21803;-74
2022/12/29 02:48:27;;;;;;;10.72;7.90;;;;;;;0.08;76.94;100994.72;1731770;82;21001;-73
2022/12/29 02:51:21;;;;;;;11.30;8.45;;;;;;;0.06;76.98;100990.87;1727496;81;20996;-73
2022/12/29 02:56:32;;;;;;;11.65;8.10;;;;;;;0.05;77.00;100987.87;1746700;82;21436;-73
2022/12/29 02:58:59;;;;;;;11.80;7.60;;;;;;;0.06;77.04;100984.82;1723267;82;22522;-73
2022/12/29 03:02:37;;;;;;;11.83;8.55;;;;;;;0.06;77.07;100979.18;1733429;82;20976;-73
2022/12/29 03:04:46;;;;;;;10.30;8.15;;;;;;;0.07;77.07;100987.38;1706698;82;21578;-73
2022/12/29 03:07:36;;;;;;;;;;;;;;;0.07;77.10;100988.67;1755578;81;21020;-73
2022/12/29 03:10:45;;;;;;;10.53;7.90;;;;;;;0.09;77.06;100983.44;1722085;83;20144;-74
2022/12/29 03:16:26;;;;;;;12.13;7.80;;;;;;;0.10;77.07;100979.97;1724030;82;21043;-74
2022/12/29 03:19:18;;;;;;;10.82;7.45;;;;;;;0.11;77.05;100978.63;1765459;81;21450;-74
2022/12/29 03:24:46;;;;;;;11.90;7.30;;;;;;;0.12;77.02;100975.58;1760210;80;21457;-74
2022/12/29 03:27:16;;;;;;;11.38;6.92;;;;;;;0.12;76.99;100972.98;1737406;82;21797;-73
2022/12/29 03:29:52;;;;;;;10.18;6.80;;;;;;;0.13;76.96;100977.28;1718514;83;20964;-74
2022/12/29 03:32:16;;;;;;;11.53;6.95;;;;;;;0.14;76.90;100971.19;1737277;82;21027;-74
2022/12/29 03:34:43;;;;;;;9.08;6.50;;;;;;;0.14;76.85;100971.19;1755955;81;20967;-74
2022/12/29 03:37:14;;;;;;;11.05;6.75;;;;;;;0.14;76.78;100969.89;1765573;81;21023;-74
2022/12/29 03:39:41;;;;;;;8.75;6.42;;;;;;;0.14;76.71;100968.59;1764775;81;21850;-74
2022/12/29 03:42:12;;;;;;;10.00;6.83;;;;;;;0.11;76.65;100971.28;1740735;81;21503;-72
2022/12/29 03:44:42;;;;;;;9.73;6.90;;;;;;;0.10;76.60;100972.18;1767524;79;21049;-74
2022/12/29 03:47:11;;;;;;;10.58;7.15;;;;;;;0.08;76.53;100969.59;1765518;81;20979;-74
2022/12/29 03:49:39;;;;;;;9.53;6.80;;;;;;;0.07;76.44;100970.94;1765667;81;20986;-73
2022/12/29 03:52:05;;;;;;;9.28;7.05;;;;;;;0.04;76.38;100967.98;1741384;81;21809;-73
2022/12/29 03:54:34;;;;;;;10.23;7.22;;;;;;;0.02;76.32;100970.23;1737219;82;20935;-73
2022/12/29 03:57:00;;;;;;;11.00;7.85;;;;;;;-0.01;76.26;100978.48;1737319;81;21082;-72
2022/12/29 03:59:32;;;;;;;10.08;6.70;;;;;;;-0.03;76.22;100975.52;1711785;82;21054;-73
2022/12/29 04:01:58;;;;;;;10.50;7.00;;;;;;;-0.06;76.15;100973.88;1737274;81;21541;-73
2022/12/29 04:04:25;;;;;;;10.95;7.47;;;;;;;-0.09;76.11;100970.06;1707819;82;22428;-73
2022/12/29 04:06:51;;;;;;;12.03;7.58;;;;;;;-0.12;76.04;100958.88;1737282;82;20907;-74
2022/12/29 04:09:18;;;;;;;13.30;7.80;;;;;;;-0.13;76.01;100964.97;1763521;81;21035;-74
2022/12/29 04:11:47;;;;;;;10.63;7.75;;;;;;;-0.17;75.98;100963.36;1765491;81;20968;-73
2022/12/29 04:14:14;;;;;;;10.63;7.22;;;;;;;-0.20;75.96;100959.52;1741767;81;20964;-73
2022/12/29 04:16:41;;;;;;;10.65;7.40;;;;;;;-0.21;75.92;100957.83;1765751;81;21934;-74
2022/12/29 04:19:08;;;;;;;11.65;7.70;;;;;;;-0.22;75.92;100963.91;1767847;81;21062;-74
2022/12/29 04:21:35;;;;;;;9.78;6.87;;;;;;;-0.24;75.91;100955.31;1748269;82;21000;-74
2022/12/29 04:24:02;;;;;;;10.32;7.20;;;;;;;-0.25;75.87;100956.21;1741776;81;21063;-73
2022/12/29 04:26:30;;;;;;;9.88;6.85;;;;;;;-0.28;75.85;100945.91;1736830;82;21137;-72
2022/12/29 04:28:59;;;;;;;10.93;7.67;;;;;;;-0.29;75.80;100947.62;1735202;82;22483;-73
2022/12/29 04:31:44;;;;;;;9.60;7.00;;;;;;;-0.32;75.77;100944.67;1706307;84;21382;-74
2022/12/29 04:34:11;;;;;;;13.13;7.83;;;;;;;-0.32;75.80;100949.87;1748038;82;21008;-74
2022/12/29 04:36:39;;;;;;;9.45;6.62;;;;;;;-0.34;75.75;100950.36;1748224;82;20992;-73
2022/12/29 04:39:06;;;;;;;10.05;7.50;;;;;;;-0.35;75.74;100948.66;1748351;82;21055;-74
2022/12/29 04:41:33;;;;;;;10.15;7.28;;;;;;;-0.37;75.71;100945.70;1741639;82;21752;-74
2022/12/29 04:44:00;;;;;;;9.85;6.50;;;;;;;-0.38;75.73;100942.25;1731923;81;21676;-73
2022/12/29 04:46:45;;;;;;;10.08;6.28;;;;;;;-0.40;75.70;100944.02;1709433;83;20932;-74
2022/12/29 04:49:14;;;;;;;8.28;6.33;;;;;;;-0.42;75.66;100949.69;1698137;82;21071;-73
2022/12/29 04:51:48;;;;;;;11.38;6.58;;;;;;;-0.46;75.67;100944.19;1743349;81;21447;-74
2022/12/29 04:54:16;;;;;;;9.13;6.53;;;;;;;-0.48;75.64;100935.59;1743797;82;21910;-73
2022/12/29 04:56:44;;;;;;;9.85;6.72;;;;;;;-0.50;75.67;100936.50;1741080;82;21384;-74
2022/12/29 04:59:12;;;;;;;9.88;6.20;;;;;;;-0.52;75.67;100930.50;1739545;82;20988;-74
2022/12/29 05:01:39;;;;;;;9.88;6.53;;;;;;;-0.52;75.68;100930.05;1740774;82;20992;-74
2022/12/29 05:04:06;;;;;;;10.32;6.90;;;;;;;-0.52;75.67;100920.12;1740752;82;21134;-72
2022/12/29 05:06:33;;;;;;;8.88;6.00;;;;;;;-0.51;75.67;100920.52;1739346;82;21884;-74
2022/12/29 05:09:00;;;;;;;7.67;5.90;;;;;;;-0.51;75.63;100916.19;1740917;82;21055;-74
2022/12/29 05:11:27;;;;;;;8.48;6.17;;;;;;;-0.52;75.58;100911.89;1740879;82;20952;-73
2022/12/29 05:13:55;;;;;;;9.30;6.37;;;;;;;-0.52;75.56;100913.63;1740841;82;21363;-74
2022/12/29 05:16:21;;;;;;;11.22;6.28;;;;;;;-0.51;75.54;100916.63;1739346;81;21047;-74
2022/12/29 05:18:48;;;;;;;9.60;6.22;;;;;;;-0.50;75.52;100914.44;1740760;82;21816;-74
2022/12/29 05:21:15;;;;;;;9.60;6.12;;;;;;;-0.50;75.49;100906.66;1741064;82;21396;-74
2022/12/29 05:23:43;;;;;;;9.18;6.20;;;;;;;-0.49;75.44;100907.06;1739419;82;21007;-74
2022/12/29 05:26:11;;;;;;;8.35;6.08;;;;;;;-0.49;75.38;100901.87;1740873;82;21000;-72
2022/12/29 05:28:40;;;;;;;10.05;6.33;;;;;;;-0.49;75.35;100899.28;1737155;82;21066;-73
2022/12/29 05:31:11;;;;;;;7.90;5.87;;;;;;;-0.47;75.34;100906.60;1740860;82;21779;-74
2022/12/29 05:33:38;;;;;;;11.65;6.80;;;;;;;-0.46;75.32;100905.70;1739436;82;21031;-74
2022/12/29 05:36:06;;;;;;;11.22;6.60;;;;;;;-0.45;75.28;100908.70;1721923;82;20968;-74
2022/12/29 05:38:35;;;;;;;9.90;6.30;;;;;;;-0.44;75.20;100902.17;1740780;82;20997;-74
2022/12/29 05:41:01;;;;;;;9.90;7.30;;;;;;;-0.43;75.13;100909.06;1726044;82;21003;-73
2022/12/29 05:43:46;;;;;;;9.53;6.60;;;;;;;-0.42;75.07;100916.41;1711363;83;21410;-73
2022/12/29 05:46:14;;;;;;;10.08;7.22;;;;;;;-0.44;75.01;100916.45;1714909;83;21047;-73
2022/12/29 05:48:46;;;;;;;10.90;7.05;;;;;;;-0.44;74.99;100929.42;1715618;83;20952;-74
2022/12/29 05:55:11;;;;;;;10.65;7.08;;;;;;;-0.44;74.90;100929.88;1721855;82;21011;-73
2022/12/29 05:57:38;;;;;;;10.23;7.42;;;;;;;-0.46;74.86;100933.80;1741646;82;22527;-74
2022/12/29 06:00:14;;;;;;;12.28;7.03;;;;;;;-0.46;74.82;100930.36;1747534;81;21036;-74
2022/12/29 06:02:45;;;;;;;11.63;7.22;;;;;;;-0.48;74.79;100937.30;1763570;81;20956;-74
2022/12/29 06:05:13;;;;;;;9.75;6.90;;;;;;;-0.49;74.77;100933.86;1766875;81;20972;-74
2022/12/29 06:07:40;;;;;;;11.05;6.90;;;;;;;-0.50;74.72;100933.45;1754320;81;20996;-74
2022/12/29 06:10:07;;;;;;;9.85;7.17;;;;;;;-0.50;74.73;100925.67;1743239;82;21992;-72
2022/12/29 06:12:35;;;;;;;11.85;7.20;;;;;;;-0.50;74.75;100920.92;1746750;82;20980;-74
2022/12/29 06:15:02;;;;;;;9.50;6.65;;;;;;;-0.49;74.76;100923.48;1746260;82;20981;-74
2022/12/29 06:17:30;;;;;;;11.57;6.95;;;;;;;-0.47;74.77;100924.31;1747986;82;21000;-72
2022/12/29 06:19:57;;;;;;;11.38;7.65;;;;;;;-0.45;74.83;100919.09;1747999;82;20961;-74
2022/12/29 06:22:24;;;;;;;11.25;7.22;;;;;;;-0.44;74.87;100918.19;1747879;82;21770;-74
2022/12/29 06:24:50;;;;;;;11.60;8.00;;;;;;;-0.42;74.90;100921.14;1753443;81;20995;-74
2022/12/29 06:27:17;;;;;;;10.43;7.25;;;;;;;-0.39;74.95;100917.16;1766783;81;21011;-73
2022/12/29 06:29:44;;;;;;;10.30;6.97;;;;;;;-0.36;74.95;100908.02;1766875;81;21130;-74
2022/12/29 06:32:11;;;;;;;12.43;8.10;;;;;;;-0.34;74.95;100901.48;1738788;81;21024;-74
2022/12/29 06:34:40;;;;;;;11.33;7.53;;;;;;;-0.32;74.93;100910.93;1717915;83;21865;-74
2022/12/29 06:37:06;;;;;;;10.68;7.97;;;;;;;-0.27;74.89;100908.68;1689612;83;20952;-74
2022/12/29 06:39:33;;;;;;;12.95;7.62;;;;;;;-0.24;74.80;100909.89;1718078;83;20984;-74
2022/12/29 06:42:01;;;;;;;11.03;7.62;;;;;;;-0.20;74.71;100907.60;1743702;82;21262;-73
2022/12/29 06:44:32;;;;;;;10.25;6.90;;;;;;;-0.18;74.61;100901.50;1712300;82;21476;-73
2022/12/29 06:47:04;;;;;;;9.15;6.87;;;;;;;-0.15;74.50;100897.52;1727311;82;21816;-74
2022/12/29 06:49:30;;;;;;;12.03;6.90;;;;;;;-0.10;74.39;100906.02;1726906;82;21001;-75
2022/12/29 06:51:59;;;;;;;9.30;6.50;;;;;;;-0.07;74.24;100896.86;1726214;82;21004;-74
2022/12/29 06:54:26;;;;;;;11.48;7.10;;;;;;;-0.04;74.15;100900.66;1735333;82;21055;-74
2022/12/29 06:56:52;;;;;;;10.43;7.28;;;;;;;-0.02;74.04;100897.58;1735505;82;21043;-74
2022/12/29 06:59:19;;;;;;;10.88;7.83;;;;;;;-0.02;73.89;100891.53;1745672;82;22563;-74
2022/12/29 07:01:46;;;;;;;10.43;7.22;;;;;;;-0.03;73.72;100893.73;1727263;83;21004;-74
2022/12/29 07:04:12;;;;;;;10.58;7.45;;;;;;;-0.06;73.61;100897.72;1740831;82;20973;-74
2022/12/29 07:06:40;;;;;;;11.22;6.92;;;;;;;-0.10;73.55;100894.33;1728646;83;21030;-74
2022/12/29 07:09:08;;;;;;;10.45;7.40;;;;;;;-0.12;73.50;100898.72;1718952;83;21443;-74
2022/12/29 07:11:34;;;;;;;11.30;7.20;;;;;;;-0.14;73.50;100900.96;1718596;83;21826;-74
2022/12/29 07:14:02;;;;;;;10.48;6.97;;;;;;;-0.16;73.45;100897.56;1718592;82;21012;-74
2022/12/29 07:16:30;;;;;;;10.20;6.50;;;;;;;-0.16;73.50;100912.69;1745580;82;21527;-74
2022/12/29 07:18:57;;;;;;;11.70;7.58;;;;;;;-0.14;73.49;100914.80;1746821;82;21005;-74
2022/12/29 07:21:25;;;;;;;13.68;7.50;;;;;;;-0.14;73.52;100924.33;1728089;83;21050;-75
2022/12/29 07:23:52;;;;;;;8.75;7.20;;;;;;;-0.10;73.58;100931.98;1746537;82;22335;-75
2022/12/29 07:26:18;;;;;;;9.95;7.55;;;;;;;-0.04;73.62;100939.62;1683513;82;21032;-74
2022/12/29 07:28:45;;;;;;;10.25;7.30;;;;;;;0.04;73.60;100926.43;1748444;81;21008;-75
2022/12/29 07:31:20;;;;;;;14.38;8.13;;;;;;;0.10;73.47;100932.77;1747545;82;21004;-74
2022/12/29 07:33:47;;;;;;;11.93;7.90;;;;;;;0.17;73.39;100930.39;1727371;83;20952;-74
2022/12/29 07:36:14;;;;;;;10.72;7.47;;;;;;;0.23;73.29;100931.53;1746974;82;22612;-72
2022/12/29 07:38:41;;;;;;;10.28;7.22;;;;;;;0.30;73.21;100921.83;1727275;83;21031;-74
2022/12/29 07:41:08;;;;;;;11.80;7.05;;;;;;;0.35;73.05;100910.83;1731026;81;20959;-74
2022/12/29 07:43:34;;;;;;;9.68;6.83;;;;;;;0.43;73.02;100914.52;1769697;81;21422;-74
2022/12/29 07:46:06;;;;;;;11.75;6.85;;;;;;;0.50;72.89;100910.85;1741354;81;20952;-74
2022/12/29 07:48:35;;;;;;;8.68;6.33;;;;;;;0.57;72.79;100896.75;1760544;80;21784;-74
2022/12/29 07:51:01;;;;;;;11.10;5.90;;;;;;;0.63;72.58;100900.93;1731042;81;20990;-74
2022/12/29 07:53:27;;;;;;;8.78;5.50;;;;;;;0.67;72.22;100902.53;1761963;81;21407;-74
2022/12/29 07:55:54;;;;;;;7.62;5.08;;;;;;;0.72;72.03;100906.70;1732839;81;20956;-75
2022/12/29 07:58:21;;;;;;;8.53;5.35;;;;;;;0.77;71.88;100897.03;1713462;83;21020;-75
2022/12/29 08:00:47;;;;;;;7.58;5.00;;;;;;;0.83;71.42;100904.63;1713309;83;22335;-75
2022/12/29 08:03:13;;;;;;;8.98;4.80;;;;;;;0.87;71.25;100908.00;1713488;83;21321;-75
2022/12/29 08:05:40;;;;;;;8.18;4.72;;;;;;;0.91;70.76;100899.19;1718179;82;21450;-73
2022/12/29 08:08:06;;;;;;;6.47;4.47;;;;;;;0.96;70.67;100901.63;1733344;82;21367;-72
2022/12/29 08:10:33;;;;;;;8.90;4.55;;;;;;;1.00;70.39;100897.60;1733074;82;20989;-74
2022/12/29 08:12:59;;;;;;;6.97;4.37;;;;;;;1.04;70.26;100900.50;1732358;82;22535;-74
2022/12/29 08:15:25;;;;;;;6.30;4.50;;;;;;;1.09;70.05;100907.72;1743051;82;20927;-74
2022/12/29 08:17:52;;;;;;;7.08;4.70;;;;;;;1.13;69.79;100904.11;1743005;82;21337;-74
2022/12/29 08:20:18;;;;;;;6.47;4.10;;;;;;;1.20;69.54;100901.31;1742998;82;21025;-75
2022/12/29 08:22:45;;;;;;;6.60;4.37;;;;;;;1.26;69.32;100900.68;1738194;81;20964;-74
2022/12/29 08:25:12;;;;;;;7.55;4.28;;;;;;;1.32;69.17;100899.61;1733354;82;21999;-75
2022/12/29 08:27:38;;;;;;;6.47;4.25;;;;;;;1.39;69.01;100890.70;1733207;82;21012;-73
2022/12/29 08:30:07;;;;;;;6.80;4.37;;;;;;;1.43;68.63;100889.69;1732759;82;21032;-75
2022/12/29 08:32:34;;;;;;;6.50;4.53;;;;;;;1.44;68.31;100880.52;1743223;82;21021;-74
2022/12/29 08:35:00;;;;;;;8.75;5.10;;;;;;;1.46;68.36;100873.14;1743376;82;21004;-74
2022/12/29 08:37:27;;;;;;;8.05;4.70;;;;;;;1.53;68.37;100866.80;1743101;82;21987;-75
2022/12/29 08:39:54;;;;;;;8.43;5.10;;;;;;;1.59;68.23;100865.30;1739585;81;20964;-75
2022/12/29 08:42:20;;;;;;;8.65;4.58;;;;;;;1.64;68.14;100869.45;1733172;82;21044;-74
2022/12/29 08:44:47;;;;;;;8.75;4.92;;;;;;;1.72;67.98;100857.45;1733393;82;21102;-74
2022/12/29 08:47:13;;;;;;;8.35;4.53;;;;;;;1.81;67.83;100853.67;1733431;82;21073;-74
2022/12/29 08:49:40;;;;;;;7.87;5.47;;;;;;;1.91;67.61;100848.53;1743144;82;21961;-74
2022/12/29 08:52:07;;;;;;;7.33;4.15;;;;;;;2.00;67.57;100856.02;1748762;81;21027;-74
2022/12/29 08:54:34;;;;;;;6.60;4.55;;;;;;;2.06;66.78;100845.83;1759870;80;21358;-73
2022/12/29 08:57:00;;;;;;;7.70;4.30;;;;;;;2.05;66.37;100850.65;1741749;81;21008;-73
2022/12/29 08:59:29;;;;;;;7.55;4.37;;;;;;;2.03;66.17;100852.02;1714984;82;21048;-74
2022/12/29 09:01:55;;;;;;;8.13;4.58;;;;;;;2.03;66.03;100857.65;1716291;83;21899;-75
2022/12/29 09:04:23;;;;;;;7.35;4.75;;;;;;;1.98;65.93;100847.41;1716875;82;21386;-75
2022/12/29 09:06:50;;;;;;;8.28;5.33;;;;;;;1.98;65.96;100852.62;1716098;83;20912;-75
2022/12/29 09:09:18;;;;;;;7.70;4.62;;;;;;;1.98;65.95;100844.80;1715959;83;20961;-75
2022/12/29 09:11:46;;;;;;;8.70;4.55;;;;;;;1.99;65.83;100858.23;1716005;83;20945;-75
2022/12/29 09:14:12;;;;;;;7.45;5.22;;;;;;;2.04;65.65;100850.26;1729675;82;21936;-75
2022/12/29 09:16:39;;;;;;;9.35;4.83;;;;;;;2.09;65.68;100856.13;1745685;82;21032;-74
2022/12/29 09:19:05;;;;;;;7.60;4.67;;;;;;;2.16;65.54;100848.05;1745929;82;20952;-75
2022/12/29 09:21:32;;;;;;;7.22;4.87;;;;;;;2.26;65.72;100843.33;1736784;82;20992;-73
2022/12/29 09:23:59;;;;;;;7.87;4.50;;;;;;;2.35;65.53;100843.45;1716052;82;21083;-75
2022/12/29 09:26:25;;;;;;;8.43;4.70;;;;;;;2.38;65.30;100831.59;1723247;82;21883;-75
2022/12/29 09:28:52;;;;;;;6.90;4.70;;;;;;;2.41;64.96;100833.61;1750738;80;20945;-75
2022/12/29 09:31:18;;;;;;;7.53;4.80;;;;;;;2.41;64.94;100826.24;1748059;82;20961;-75
2022/12/29 09:33:45;;;;;;;9.48;4.42;;;;;;;2.43;65.00;100822.70;1745993;82;20966;-75
2022/12/29 09:36:11;;;;;;;6.95;4.58;;;;;;;2.47;64.92;100815.59;1745732;82;21004;-75
2022/12/29 09:38:38;;;;;;;8.55;5.03;;;;;;;2.53;65.00;100814.06;1735795;82;21882;-74
2022/12/29 09:41:25;;;;;;;8.98;4.70;;;;;;;2.57;64.75;100813.87;1754551;81;21000;-74
2022/12/29 09:44:06;;;;;;;8.73;4.92;;;;;;;2.61;64.55;100812.00;1737496;81;20988;-75
2022/12/29 09:46:39;;;;;;;7.37;4.35;;;;;;;2.66;64.73;100804.83;1753754;81;21073;-75
2022/12/29 09:49:31;;;;;;;7.62;4.67;;;;;;;2.72;64.32;100812.42;1747066;81;20957;-73
2022/12/29 09:52:04;;;;;;;8.60;4.78;;;;;;;2.76;63.96;100811.38;1747109;82;21951;-75
2022/12/29 09:54:52;;;;;;;7.60;4.70;;;;;;;2.76;64.04;100808.77;1743085;82;20992;-75
2022/12/29 09:57:32;;;;;;;7.65;4.85;;;;;;;2.80;64.13;100809.06;1718765;83;21028;-75
2022/12/29 10:00:04;;;;;;;8.10;5.78;;;;;;;2.91;64.11;100812.98;1718677;83;21818;-74
2022/12/29 10:02:36;;;;;;;;;;;;;;;2.98;63.77;100804.83;1721256;82;21000;-74
2022/12/29 10:05:03;;;;;;;6.20;4.47;;;;;;;3.05;63.56;100823.70;1729003;82;21822;-75
2022/12/29 10:07:42;;;;;;;7.00;4.70;;;;;;;3.13;63.52;100817.70;1747156;82;21005;-74
2022/12/29 10:11:00;;;;;;;8.83;5.35;;;;;;;3.20;63.20;100812.63;1747096;81;21302;-73
2022/12/29 10:13:38;;;;;;;10.55;6.62;;;;;;;3.27;63.11;100809.28;1727692;82;21201;-74
2022/12/29 10:16:16;;;;;;;9.15;5.95;;;;;;;3.31;62.69;100816.94;1711317;83;20960;-75
2022/12/29 10:19:01;;;;;;;8.70;5.25;;;;;;;3.30;62.81;100816.55;1718826;83;21833;-74
2022/12/29 10:22:07;;;;;;;10.30;5.70;;;;;;;3.28;62.63;100815.78;1726519;82;21075;-75
2022/12/29 10:24:35;;;;;;;11.48;5.97;;;;;;;3.25;62.69;100805.44;1748525;82;20997;-74
2022/12/29 10:27:01;;;;;;;9.48;6.30;;;;;;;3.21;62.96;100801.28;1748773;82;21044;-74
2022/12/29 10:29:39;;;;;;;9.65;6.10;;;;;;;3.24;63.16;100798.98;1747137;82;21071;-73
2022/12/29 10:32:28;;;;;;;7.92;5.78;;;;;;;3.26;63.04;100801.91;1748756;82;21836;-73
2022/12/29 10:35:04;;;;;;;9.73;6.12;;;;;;;3.26;63.05;100796.69;1727657;82;20949;-74
2022/12/29 10:37:56;;;;;;;9.00;6.03;;;;;;;3.30;63.06;100796.13;1746236;82;20972;-73
2022/12/29 10:40:42;;;;;;;10.75;6.40;;;;;;;3.28;62.70;100798.80;1736851;82;21028;-74
2022/12/29 10:43:28;;;;;;;9.83;6.15;;;;;;;3.26;62.82;100799.30;1736237;82;20948;-74
2022/12/29 10:45:58;;;;;;;9.33;6.05;;;;;;;3.26;62.96;100794.08;1735131;82;21837;-74
2022/12/29 10:48:31;;;;;;;9.30;5.58;;;;;;;3.23;62.92;100789.46;1746097;81;21014;-73
2022/12/29 10:51:00;;;;;;;10.48;7.20;;;;;;;3.19;62.96;100784.84;1738098;82;22475;-75
2022/12/29 10:53:43;;;;;;;11.93;6.78;;;;;;;3.13;62.94;100778.10;1760079;81;20935;-75
2022/12/29 10:56:32;;;;;;;;;;;;;;;3.12;63.29;100771.64;1735624;82;21087;-74
2022/12/29 10:59:05;;;;;;;10.40;6.15;;;;;;;3.13;63.45;100758.98;1736085;82;22439;-74
2022/12/29 11:01:37;;;;;;;9.33;6.00;;;;;;;3.14;63.56;100769.36;1757508;81;20993;-75
2022/12/29 11:04:38;;;;;;;8.15;5.25;;;;;;;3.16;63.49;100756.23;1757305;81;20996;-74
2022/12/29 11:07:06;;;;;;;9.30;5.58;;;;;;;3.14;63.49;100751.55;1759806;81;21431;-75
2022/12/29 11:09:36;;;;;;;10.82;5.67;;;;;;;3.15;63.70;100751.93;1759843;81;21015;-73
2022/12/29 11:12:26;;;;;;;9.10;5.60;;;;;;;3.15;63.75;100748.86;1759857;81;22521;-75
2022/12/29 11:15:13;;;;;;;11.43;6.53;;;;;;;3.15;63.89;100753.23;1733921;81;21074;-75
2022/12/29 11:17:55;;;;;;;10.03;6.20;;;;;;;3.16;63.94;100752.31;1759705;81;21044;-75
2022/12/29 11:20:42;;;;;;;11.55;5.75;;;;;;;3.22;64.05;100756.44;1759350;81;21051;-75
2022/12/29 11:23:25;;;;;;;9.50;6.03;;;;;;;3.22;63.90;100746.84;1729345;81;27817;-74
2022/12/29 11:26:15;;;;;;;7.83;5.70;;;;;;;3.24;63.98;100746.78;1729557;83;21849;-74
2022/12/29 11:29:09;;;;;;;8.70;5.80;;;;;;;3.23;64.06;100752.45;1729146;83;21048;-74
2022/12/29 11:31:48;;;;;;;9.75;5.95;;;;;;;3.22;64.02;100751.22;1729783;83;20996;-74
2022/12/29 11:34:33;;;;;;;9.78;5.83;;;;;;;3.20;64.09;100753.91;1728951;83;20969;-74
2022/12/29 11:37:08;;;;;;;9.63;6.00;;;;;;;3.16;64.04;100749.25;1730984;81;20987;-75
2022/12/29 11:39:59;;;;;;;11.33;6.42;;;;;;;3.16;64.17;100741.42;1729278;83;23818;-74
2022/12/29 11:42:44;;;;;;;10.82;5.80;;;;;;;3.16;64.23;100743.18;1729666;83;21404;-75
2022/12/29 11:45:21;;;;;;;10.23;5.97;;;;;;;3.13;64.28;100745.48;1729357;83;20984;-75
2022/12/29 11:47:52;;;;;;;10.28;6.25;;;;;;;3.11;64.31;100748.62;1747833;81;21040;-74
2022/12/29 11:50:22;;;;;;;9.50;6.10;;;;;;;3.07;64.31;100736.59;1749953;81;21067;-75
2022/12/29 11:52:49;;;;;;;11.22;6.30;;;;;;;3.04;64.32;100741.11;1748151;81;21836;-74
2022/12/29 11:55:22;;;;;;;10.00;6.17;;;;;;;3.02;64.41;100737.72;1742736;82;20987;-75
2022/12/29 11:57:48;;;;;;;11.15;5.95;;;;;;;2.97;64.47;100741.81;1741354;82;21471;-75
2022/12/29 12:00:19;;;;;;;8.60;5.92;;;;;;;2.92;64.56;100737.26;1740873;82;21478;-74
2022/12/29 12:03:11;;;;;;;11.18;6.25;;;;;;;2.91;64.75;100734.72;1740878;81;21082;-74
2022/12/29 12:05:45;;;;;;;9.73;5.87;;;;;;;2.90;64.83;100738.24;1748060;82;21939;-74
2022/12/29 12:08:20;;;;;;;9.40;5.95;;;;;;;2.90;64.95;100733.88;1748429;82;21482;-73
2022/12/29 12:11:10;;;;;;;11.15;5.83;;;;;;;2.87;64.92;100735.28;1747549;82;21356;-73
2022/12/29 12:14:01;;;;;;;11.22;5.55;;;;;;;2.82;64.97;100737.25;1718438;83;20960;-74
2022/12/29 12:16:43;;;;;;;10.43;6.05;;;;;;;2.79;65.11;100736.90;1718353;83;21086;-74
2022/12/29 12:19:19;;;;;;;8.65;5.70;;;;;;;2.78;65.28;100739.58;1718272;83;22237;-75
2022/12/29 12:21:50;;;;;;;9.43;5.97;;;;;;;2.77;65.32;100740.03;1738671;82;21444;-74
2022/12/29 12:24:34;;;;;;;8.83;6.47;;;;;;;2.74;65.45;100745.84;1748475;81;20961;-74
2022/12/29 12:27:19;;;;;;;10.23;6.28;;;;;;;2.71;65.60;100746.83;1748124;82;20989;-75
2022/12/29 12:29:56;;;;;;;12.68;6.53;;;;;;;2.70;65.73;100750.78;1724745;81;21071;-74